sensor_id;sensor_type;location;lat;lon;timestamp;temperature;humidity
23744;DHT22;12052;53.478;10.182;2023-11-22T00:01:29;1.90;99.90
23744;DHT22;12052;53.478;10.182;2023-11-22T00:03:55;1.90;99.90
23744;DHT22;12052;53.478;10.182;2023-11-22T00:06:22;1.90;99.90
23744;DHT22;12052;53.478;10.182;2023-11-22T00:08:48;1.90;99.90
23744;DHT22;12052;53.478;10.182;2023-11-22T00:11:13;1.90;99.90
23744;DHT22;12052;53.478;10.182;2023-11-22T00:13:44;1.90;99.90
23744;DHT22;12052;53.478;10.182;2023-11-22T00:16:14;1.90;99.90
23744;DHT22;12052;53.478;10.182;2023-11-22T00:18:42;1.80;99.90
23744;DHT22;12052;53.478;10.182;2023-11-22T00:21:10;1.80;99.90
23744;DHT22;12052;53.478;10.182;2023-11-22T00:23:37;1.80;99.90
23744;DHT22;12052;53.478;10.182;2023-11-22T00:26:03;1.80;99.90
23744;DHT22;12052;53.478;10.182;2023-11-22T00:28:30;1.70;99.90
23744;DHT22;12052;53.478;10.182;2023-11-22T00:30:56;1.70;99.90
23744;DHT22;12052;53.478;10.182;2023-11-22T00:33:22;1.60;99.90
23744;DHT22;12052;53.478;10.182;2023-11-22T00:35:47;1.60;99.90
23744;DHT22;12052;53.478;10.182;2023-11-22T00:38:13;1.60;99.90
23744;DHT22;12052;53.478;10.182;2023-11-22T00:40:40;1.50;99.90
23744;DHT22;12052;53.478;10.182;2023-11-22T00:43:06;1.50;99.90
23744;DHT22;12052;53.478;10.182;2023-11-22T00:45:32;1.40;99.90
23744;DHT22;12052;53.478;10.182;2023-11-22T00:47:59;1.40;99.90
23744;DHT22;12052;53.478;10.182;2023-11-22T00:50:26;1.30;99.90
23744;DHT22;12052;53.478;10.182;2023-11-22T00:52:51;1.30;99.90
23744;DHT22;12052;53.478;10.182;2023-11-22T00:55:17;1.30;99.90
23744;DHT22;12052;53.478;10.182;2023-11-22T00:57:43;1.20;99.90
23744;DHT22;12052;53.478;10.182;2023-11-22T01:00:13;1.20;99.90
23744;DHT22;12052;53.478;10.182;2023-11-22T01:02:40;1.30;99.90
23744;DHT22;12052;53.478;10.182;2023-11-22T01:05:11;1.10;99.90
23744;DHT22;12052;53.478;10.182;2023-11-22T01:07:38;1.20;99.90
23744;DHT22;12052;53.478;10.182;2023-11-22T01:10:04;1.10;99.90
23744;DHT22;12052;53.478;10.182;2023-11-22T01:12:31;1.10;99.90
23744;DHT22;12052;53.478;10.182;2023-11-22T01:14:57;1.10;99.90
23744;DHT22;12052;53.478;10.182;2023-11-22T01:17:22;1.10;99.90
23744;DHT22;12052;53.478;10.182;2023-11-22T01:19:49;1.00;99.90
23744;DHT22;12052;53.478;10.182;2023-11-22T01:22:16;0.90;99.90
23744;DHT22;12052;53.478;10.182;2023-11-22T01:24:42;0.90;99.90
23744;DHT22;12052;53.478;10.182;2023-11-22T01:27:08;0.90;99.90
23744;DHT22;12052;53.478;10.182;2023-11-22T01:29:34;0.90;99.90
23744;DHT22;12052;53.478;10.182;2023-11-22T01:32:00;0.90;99.90
23744;DHT22;12052;53.478;10.182;2023-11-22T01:34:26;0.90;99.90
23744;DHT22;12052;53.478;10.182;2023-11-22T01:36:57;0.90;99.90
23744;DHT22;12052;53.478;10.182;2023-11-22T01:39:22;1.00;99.90
23744;DHT22;12052;53.478;10.182;2023-11-22T01:41:48;1.10;99.90
23744;DHT22;12052;53.478;10.182;2023-11-22T01:44:21;1.10;99.90
23744;DHT22;12052;53.478;10.182;2023-11-22T01:46:46;1.20;99.90
23744;DHT22;12052;53.478;10.182;2023-11-22T01:49:13;1.20;99.90
23744;DHT22;12052;53.478;10.182;2023-11-22T01:51:40;1.20;99.90
23744;DHT22;12052;53.478;10.182;2023-11-22T01:54:07;1.30;99.90
23744;DHT22;12052;53.478;10.182;2023-11-22T01:56:35;1.30;99.90
23744;DHT22;12052;53.478;10.182;2023-11-22T01:59:02;1.30;99.90
23744;DHT22;12052;53.478;10.182;2023-11-22T02:01:29;1.20;99.90
23744;DHT22;12052;53.478;10.182;2023-11-22T02:03:57;1.20;99.90
23744;DHT22;12052;53.478;10.182;2023-11-22T02:06:23;1.20;99.90
23744;DHT22;12052;53.478;10.182;2023-11-22T02:08:52;1.10;99.90
23744;DHT22;12052;53.478;10.182;2023-11-22T02:11:20;1.10;99.90
23744;DHT22;12052;53.478;10.182;2023-11-22T02:13:48;1.00;99.90
23744;DHT22;12052;53.478;10.182;2023-11-22T02:16:17;0.90;99.90
23744;DHT22;12052;53.478;10.182;2023-11-22T02:18:45;0.90;99.90
23744;DHT22;12052;53.478;10.182;2023-11-22T02:21:10;0.90;99.90
23744;DHT22;12052;53.478;10.182;2023-11-22T02:23:36;0.80;99.90
23744;DHT22;12052;53.478;10.182;2023-11-22T02:26:05;0.80;99.90
23744;DHT22;12052;53.478;10.182;2023-11-22T02:28:31;0.80;99.90
23744;DHT22;12052;53.478;10.182;2023-11-22T02:30:56;0.70;99.90
23744;DHT22;12052;53.478;10.182;2023-11-22T02:33:22;0.70;99.90
23744;DHT22;12052;53.478;10.182;2023-11-22T02:35:48;0.70;99.90
23744;DHT22;12052;53.478;10.182;2023-11-22T02:38:15;0.60;99.90
23744;DHT22;12052;53.478;10.182;2023-11-22T02:40:43;0.50;99.90
23744;DHT22;12052;53.478;10.182;2023-11-22T02:43:11;0.50;99.90
23744;DHT22;12052;53.478;10.182;2023-11-22T02:45:37;0.50;99.90
23744;DHT22;12052;53.478;10.182;2023-11-22T02:48:05;0.40;99.90
23744;DHT22;12052;53.478;10.182;2023-11-22T02:50:35;0.40;99.90
23744;DHT22;12052;53.478;10.182;2023-11-22T02:53:00;0.40;99.90
23744;DHT22;12052;53.478;10.182;2023-11-22T02:55:27;0.40;99.90
23744;DHT22;12052;53.478;10.182;2023-11-22T02:57:53;0.40;99.90
23744;DHT22;12052;53.478;10.182;2023-11-22T03:00:21;0.30;99.90
23744;DHT22;12052;53.478;10.182;2023-11-22T03:02:49;0.30;99.90
23744;DHT22;12052;53.478;10.182;2023-11-22T03:05:22;0.30;99.90
23744;DHT22;12052;53.478;10.182;2023-11-22T03:07:48;0.20;99.90
23744;DHT22;12052;53.478;10.182;2023-11-22T03:10:14;0.20;99.90
23744;DHT22;12052;53.478;10.182;2023-11-22T03:12:39;0.20;99.90
23744;DHT22;12052;53.478;10.182;2023-11-22T03:15:06;0.20;99.90
23744;DHT22;12052;53.478;10.182;2023-11-22T03:17:32;0.10;99.90
23744;DHT22;12052;53.478;10.182;2023-11-22T03:20:00;0.20;99.90
23744;DHT22;12052;53.478;10.182;2023-11-22T03:22:29;0.10;99.90
23744;DHT22;12052;53.478;10.182;2023-11-22T03:24:56;0.10;99.90
23744;DHT22;12052;53.478;10.182;2023-11-22T03:27:22;0.10;99.90
23744;DHT22;12052;53.478;10.182;2023-11-22T03:29:48;0.10;99.90
23744;DHT22;12052;53.478;10.182;2023-11-22T03:32:14;0.10;99.90
23744;DHT22;12052;53.478;10.182;2023-11-22T03:34:40;0.10;99.90
23744;DHT22;12052;53.478;10.182;2023-11-22T03:37:05;0.00;99.90
23744;DHT22;12052;53.478;10.182;2023-11-22T03:39:31;0.00;99.90
23744;DHT22;12052;53.478;10.182;2023-11-22T03:41:57;0.00;99.90
23744;DHT22;12052;53.478;10.182;2023-11-22T03:44:22;0.00;99.90
23744;DHT22;12052;53.478;10.182;2023-11-22T03:46:48;0.00;99.90
23744;DHT22;12052;53.478;10.182;2023-11-22T03:49:14;0.00;99.90
23744;DHT22;12052;53.478;10.182;2023-11-22T03:51:42;-0.10;99.90
23744;DHT22;12052;53.478;10.182;2023-11-22T03:54:08;-0.10;99.90
23744;DHT22;12052;53.478;10.182;2023-11-22T03:56:35;-0.10;99.90
23744;DHT22;12052;53.478;10.182;2023-11-22T03:59:01;-0.10;99.90
23744;DHT22;12052;53.478;10.182;2023-11-22T04:01:26;-0.10;99.90
23744;DHT22;12052;53.478;10.182;2023-11-22T04:03:52;-0.10;99.90
23744;DHT22;12052;53.478;10.182;2023-11-22T04:06:19;-0.10;99.90
23744;DHT22;12052;53.478;10.182;2023-11-22T04:08:46;-0.20;99.90
23744;DHT22;12052;53.478;10.182;2023-11-22T04:11:15;-0.10;99.90
23744;DHT22;12052;53.478;10.182;2023-11-22T04:13:42;-0.10;99.90
23744;DHT22;12052;53.478;10.182;2023-11-22T04:16:08;-0.10;99.90
23744;DHT22;12052;53.478;10.182;2023-11-22T04:18:39;-0.10;99.90
23744;DHT22;12052;53.478;10.182;2023-11-22T04:21:11;-0.10;99.90
23744;DHT22;12052;53.478;10.182;2023-11-22T04:23:37;-0.20;99.90
23744;DHT22;12052;53.478;10.182;2023-11-22T04:26:03;-0.20;99.90
23744;DHT22;12052;53.478;10.182;2023-11-22T04:28:29;-0.10;99.90
23744;DHT22;12052;53.478;10.182;2023-11-22T04:30:56;-0.20;99.90
23744;DHT22;12052;53.478;10.182;2023-11-22T04:33:22;-0.20;99.90
23744;DHT22;12052;53.478;10.182;2023-11-22T04:35:53;-0.20;99.90
23744;DHT22;12052;53.478;10.182;2023-11-22T04:38:19;-0.20;99.90
23744;DHT22;12052;53.478;10.182;2023-11-22T04:40:45;-0.20;99.90
23744;DHT22;12052;53.478;10.182;2023-11-22T04:43:11;-0.20;99.90
23744;DHT22;12052;53.478;10.182;2023-11-22T04:45:37;-0.20;99.90
23744;DHT22;12052;53.478;10.182;2023-11-22T04:48:03;-0.20;99.90
23744;DHT22;12052;53.478;10.182;2023-11-22T04:50:29;-0.20;99.90
23744;DHT22;12052;53.478;10.182;2023-11-22T04:52:55;-0.20;99.90
23744;DHT22;12052;53.478;10.182;2023-11-22T04:55:21;-0.20;99.90
23744;DHT22;12052;53.478;10.182;2023-11-22T04:57:49;-0.30;99.90
23744;DHT22;12052;53.478;10.182;2023-11-22T05:00:15;-0.30;99.90
23744;DHT22;12052;53.478;10.182;2023-11-22T05:02:40;-0.30;99.90
23744;DHT22;12052;53.478;10.182;2023-11-22T05:05:08;-0.40;99.90
23744;DHT22;12052;53.478;10.182;2023-11-22T05:07:37;-0.30;99.90
23744;DHT22;12052;53.478;10.182;2023-11-22T05:10:03;-0.30;99.90
23744;DHT22;12052;53.478;10.182;2023-11-22T05:12:31;-0.40;99.90
23744;DHT22;12052;53.478;10.182;2023-11-22T05:15:00;-0.40;99.90
23744;DHT22;12052;53.478;10.182;2023-11-22T05:17:25;-0.40;99.90
23744;DHT22;12052;53.478;10.182;2023-11-22T05:19:51;-0.40;99.90
23744;DHT22;12052;53.478;10.182;2023-11-22T05:22:17;-0.40;99.90
23744;DHT22;12052;53.478;10.182;2023-11-22T05:24:42;-0.40;99.90
23744;DHT22;12052;53.478;10.182;2023-11-22T05:27:09;-0.50;99.90
23744;DHT22;12052;53.478;10.182;2023-11-22T05:29:36;-0.40;99.90
23744;DHT22;12052;53.478;10.182;2023-11-22T05:32:05;-0.40;99.90
23744;DHT22;12052;53.478;10.182;2023-11-22T05:34:35;-0.40;99.90
23744;DHT22;12052;53.478;10.182;2023-11-22T05:37:01;-0.50;99.90
23744;DHT22;12052;53.478;10.182;2023-11-22T05:39:29;-0.50;99.90
23744;DHT22;12052;53.478;10.182;2023-11-22T05:41:55;-0.50;99.90
23744;DHT22;12052;53.478;10.182;2023-11-22T05:44:22;-0.50;99.90
23744;DHT22;12052;53.478;10.182;2023-11-22T05:46:47;-0.50;99.90
23744;DHT22;12052;53.478;10.182;2023-11-22T05:49:13;-0.50;99.90
23744;DHT22;12052;53.478;10.182;2023-11-22T05:51:38;-0.50;99.90
23744;DHT22;12052;53.478;10.182;2023-11-22T05:54:04;-0.50;99.90
23744;DHT22;12052;53.478;10.182;2023-11-22T05:56:30;-0.50;99.90
23744;DHT22;12052;53.478;10.182;2023-11-22T05:58:57;-0.50;99.90
23744;DHT22;12052;53.478;10.182;2023-11-22T06:01:23;-0.50;99.90
23744;DHT22;12052;53.478;10.182;2023-11-22T06:03:48;-0.50;99.90
23744;DHT22;12052;53.478;10.182;2023-11-22T06:06:14;-0.50;99.90
23744;DHT22;12052;53.478;10.182;2023-11-22T06:08:40;-0.50;99.90
23744;DHT22;12052;53.478;10.182;2023-11-22T06:11:06;-0.50;99.90
23744;DHT22;12052;53.478;10.182;2023-11-22T06:13:32;-0.50;99.90
23744;DHT22;12052;53.478;10.182;2023-11-22T06:15:58;-0.50;99.90
23744;DHT22;12052;53.478;10.182;2023-11-22T06:18:23;-0.50;99.90
23744;DHT22;12052;53.478;10.182;2023-11-22T06:20:58;-0.50;99.90
23744;DHT22;12052;53.478;10.182;2023-11-22T06:23:23;-0.60;99.90
23744;DHT22;12052;53.478;10.182;2023-11-22T06:25:49;-0.60;99.90
23744;DHT22;12052;53.478;10.182;2023-11-22T06:28:15;-0.50;99.90
23744;DHT22;12052;53.478;10.182;2023-11-22T06:30:41;-0.50;99.90
23744;DHT22;12052;53.478;10.182;2023-11-22T06:33:07;-0.50;99.90
23744;DHT22;12052;53.478;10.182;2023-11-22T06:35:33;-0.50;99.90
23744;DHT22;12052;53.478;10.182;2023-11-22T06:37:58;-0.50;99.90
23744;DHT22;12052;53.478;10.182;2023-11-22T06:40:24;-0.50;99.90
23744;DHT22;12052;53.478;10.182;2023-11-22T06:42:49;-0.50;99.90
23744;DHT22;12052;53.478;10.182;2023-11-22T06:45:15;-0.50;99.90
23744;DHT22;12052;53.478;10.182;2023-11-22T06:47:44;-0.50;99.90
23744;DHT22;12052;53.478;10.182;2023-11-22T06:50:10;-0.50;99.90
23744;DHT22;12052;53.478;10.182;2023-11-22T06:52:37;-0.40;99.90
23744;DHT22;12052;53.478;10.182;2023-11-22T06:55:06;-0.40;99.90
23744;DHT22;12052;53.478;10.182;2023-11-22T06:57:36;-0.40;99.90
23744;DHT22;12052;53.478;10.182;2023-11-22T07:00:02;-0.40;99.90
23744;DHT22;12052;53.478;10.182;2023-11-22T07:02:33;-0.30;99.90
23744;DHT22;12052;53.478;10.182;2023-11-22T07:05:00;-0.30;99.90
23744;DHT22;12052;53.478;10.182;2023-11-22T07:07:26;-0.30;99.90
23744;DHT22;12052;53.478;10.182;2023-11-22T07:09:52;-0.20;99.90
23744;DHT22;12052;53.478;10.182;2023-11-22T07:12:18;-0.20;99.90
23744;DHT22;12052;53.478;10.182;2023-11-22T07:14:44;-0.20;99.90
23744;DHT22;12052;53.478;10.182;2023-11-22T07:17:10;-0.20;99.90
23744;DHT22;12052;53.478;10.182;2023-11-22T07:19:36;-0.10;99.90
23744;DHT22;12052;53.478;10.182;2023-11-22T07:22:06;-0.10;99.90
23744;DHT22;12052;53.478;10.182;2023-11-22T07:24:44;-0.10;99.90
23744;DHT22;12052;53.478;10.182;2023-11-22T07:27:13;-0.10;99.90
23744;DHT22;12052;53.478;10.182;2023-11-22T07:29:43;-0.10;99.90
23744;DHT22;12052;53.478;10.182;2023-11-22T07:32:09;0.00;99.90
23744;DHT22;12052;53.478;10.182;2023-11-22T07:34:35;0.00;99.90
23744;DHT22;12052;53.478;10.182;2023-11-22T07:37:01;0.10;99.90
23744;DHT22;12052;53.478;10.182;2023-11-22T07:39:27;0.10;99.90
23744;DHT22;12052;53.478;10.182;2023-11-22T07:41:54;0.10;99.90
23744;DHT22;12052;53.478;10.182;2023-11-22T07:44:23;0.20;99.90
23744;DHT22;12052;53.478;10.182;2023-11-22T07:46:49;0.20;99.90
23744;DHT22;12052;53.478;10.182;2023-11-22T07:49:15;0.20;99.90
23744;DHT22;12052;53.478;10.182;2023-11-22T07:51:41;0.20;99.90
23744;DHT22;12052;53.478;10.182;2023-11-22T07:54:07;0.20;99.90
23744;DHT22;12052;53.478;10.182;2023-11-22T07:56:34;0.30;99.90
23744;DHT22;12052;53.478;10.182;2023-11-22T07:58:59;0.30;99.90
23744;DHT22;12052;53.478;10.182;2023-11-22T08:01:25;0.30;99.90
23744;DHT22;12052;53.478;10.182;2023-11-22T08:03:51;0.30;99.90
23744;DHT22;12052;53.478;10.182;2023-11-22T08:06:17;0.40;99.90
23744;DHT22;12052;53.478;10.182;2023-11-22T08:08:43;0.40;99.90
23744;DHT22;12052;53.478;10.182;2023-11-22T08:11:11;0.40;99.90
23744;DHT22;12052;53.478;10.182;2023-11-22T08:13:40;0.50;99.90
23744;DHT22;12052;53.478;10.182;2023-11-22T08:16:08;0.50;99.90
23744;DHT22;12052;53.478;10.182;2023-11-22T08:18:34;0.60;99.90
23744;DHT22;12052;53.478;10.182;2023-11-22T08:21:00;0.60;99.90
23744;DHT22;12052;53.478;10.182;2023-11-22T08:23:25;0.50;99.90
23744;DHT22;12052;53.478;10.182;2023-11-22T08:25:52;0.50;99.90
23744;DHT22;12052;53.478;10.182;2023-11-22T08:28:18;0.60;99.90
23744;DHT22;12052;53.478;10.182;2023-11-22T08:30:44;0.60;99.90
23744;DHT22;12052;53.478;10.182;2023-11-22T08:33:10;0.60;99.90
23744;DHT22;12052;53.478;10.182;2023-11-22T08:35:36;0.70;99.90
23744;DHT22;12052;53.478;10.182;2023-11-22T08:38:01;0.70;99.90
23744;DHT22;12052;53.478;10.182;2023-11-22T08:40:28;0.60;99.90
23744;DHT22;12052;53.478;10.182;2023-11-22T08:42:54;0.60;99.90
23744;DHT22;12052;53.478;10.182;2023-11-22T08:45:20;0.50;99.90
23744;DHT22;12052;53.478;10.182;2023-11-22T08:47:46;0.60;99.90
23744;DHT22;12052;53.478;10.182;2023-11-22T08:50:12;0.70;99.90
23744;DHT22;12052;53.478;10.182;2023-11-22T08:52:38;0.70;99.90
23744;DHT22;12052;53.478;10.182;2023-11-22T08:55:05;0.70;99.90
23744;DHT22;12052;53.478;10.182;2023-11-22T08:57:35;0.80;99.90
23744;DHT22;12052;53.478;10.182;2023-11-22T09:00:00;0.80;99.90
23744;DHT22;12052;53.478;10.182;2023-11-22T09:02:32;0.80;99.90
23744;DHT22;12052;53.478;10.182;2023-11-22T09:04:58;0.80;99.90
23744;DHT22;12052;53.478;10.182;2023-11-22T09:07:24;0.80;99.90
23744;DHT22;12052;53.478;10.182;2023-11-22T09:09:49;0.80;99.90
23744;DHT22;12052;53.478;10.182;2023-11-22T09:12:17;0.90;99.90
23744;DHT22;12052;53.478;10.182;2023-11-22T09:14:45;0.90;99.90
23744;DHT22;12052;53.478;10.182;2023-11-22T09:17:10;1.00;99.90
23744;DHT22;12052;53.478;10.182;2023-11-22T09:19:36;1.00;99.90
23744;DHT22;12052;53.478;10.182;2023-11-22T09:22:03;1.00;99.90
23744;DHT22;12052;53.478;10.182;2023-11-22T09:24:29;1.00;99.90
23744;DHT22;12052;53.478;10.182;2023-11-22T09:26:54;1.10;99.90
23744;DHT22;12052;53.478;10.182;2023-11-22T09:29:20;1.20;99.90
23744;DHT22;12052;53.478;10.182;2023-11-22T09:31:45;1.20;99.90
23744;DHT22;12052;53.478;10.182;2023-11-22T09:34:12;1.20;99.90
23744;DHT22;12052;53.478;10.182;2023-11-22T09:36:38;1.20;99.90
23744;DHT22;12052;53.478;10.182;2023-11-22T09:39:04;1.30;99.90
23744;DHT22;12052;53.478;10.182;2023-11-22T09:41:34;1.30;99.90
23744;DHT22;12052;53.478;10.182;2023-11-22T09:44:00;1.40;99.90
23744;DHT22;12052;53.478;10.182;2023-11-22T09:46:26;1.40;99.90
23744;DHT22;12052;53.478;10.182;2023-11-22T09:48:53;1.50;99.90
23744;DHT22;12052;53.478;10.182;2023-11-22T09:51:27;1.60;99.90
23744;DHT22;12052;53.478;10.182;2023-11-22T09:54:04;1.70;99.90
23744;DHT22;12052;53.478;10.182;2023-11-22T09:56:34;1.70;99.90
23744;DHT22;12052;53.478;10.182;2023-11-22T09:59:03;1.70;99.90
23744;DHT22;12052;53.478;10.182;2023-11-22T10:01:30;1.80;99.90
23744;DHT22;12052;53.478;10.182;2023-11-22T10:03:58;1.90;99.90
23744;DHT22;12052;53.478;10.182;2023-11-22T10:06:23;1.90;99.90
23744;DHT22;12052;53.478;10.182;2023-11-22T10:08:49;2.00;99.90
23744;DHT22;12052;53.478;10.182;2023-11-22T10:11:18;2.00;99.90
23744;DHT22;12052;53.478;10.182;2023-11-22T10:13:47;2.00;99.90
23744;DHT22;12052;53.478;10.182;2023-11-22T10:16:13;2.00;99.90
23744;DHT22;12052;53.478;10.182;2023-11-22T10:18:43;2.00;99.90
23744;DHT22;12052;53.478;10.182;2023-11-22T10:21:28;2.00;99.90
23744;DHT22;12052;53.478;10.182;2023-11-22T10:24:03;1.90;99.90
23744;DHT22;12052;53.478;10.182;2023-11-22T10:26:29;1.90;99.90
23744;DHT22;12052;53.478;10.182;2023-11-22T10:28:55;1.90;99.90
23744;DHT22;12052;53.478;10.182;2023-11-22T10:31:22;2.00;99.90
23744;DHT22;12052;53.478;10.182;2023-11-22T10:33:48;2.00;99.90
23744;DHT22;12052;53.478;10.182;2023-11-22T10:36:15;2.00;99.90
23744;DHT22;12052;53.478;10.182;2023-11-22T10:38:41;2.10;99.90
23744;DHT22;12052;53.478;10.182;2023-11-22T10:41:11;2.10;99.90
23744;DHT22;12052;53.478;10.182;2023-11-22T10:43:39;2.10;99.90
23744;DHT22;12052;53.478;10.182;2023-11-22T10:46:05;2.00;99.90
23744;DHT22;12052;53.478;10.182;2023-11-22T10:48:32;2.10;99.90
23744;DHT22;12052;53.478;10.182;2023-11-22T10:51:01;2.20;99.90
23744;DHT22;12052;53.478;10.182;2023-11-22T10:53:35;2.30;99.90
23744;DHT22;12052;53.478;10.182;2023-11-22T10:56:09;2.30;99.90
23744;DHT22;12052;53.478;10.182;2023-11-22T10:58:50;2.40;99.90
23744;DHT22;12052;53.478;10.182;2023-11-22T11:01:18;2.20;99.90
23744;DHT22;12052;53.478;10.182;2023-11-22T11:03:54;2.20;99.90
23744;DHT22;12052;53.478;10.182;2023-11-22T11:06:23;2.30;99.90
23744;DHT22;12052;53.478;10.182;2023-11-22T11:08:54;2.40;99.90
23744;DHT22;12052;53.478;10.182;2023-11-22T11:11:20;2.40;99.90
23744;DHT22;12052;53.478;10.182;2023-11-22T11:13:47;2.50;99.90
23744;DHT22;12052;53.478;10.182;2023-11-22T11:16:13;2.60;99.90
23744;DHT22;12052;53.478;10.182;2023-11-22T11:18:39;2.60;99.90
23744;DHT22;12052;53.478;10.182;2023-11-22T11:21:09;2.70;99.90
23744;DHT22;12052;53.478;10.182;2023-11-22T11:23:39;2.70;99.90
23744;DHT22;12052;53.478;10.182;2023-11-22T11:26:15;2.70;99.90
23744;DHT22;12052;53.478;10.182;2023-11-22T11:28:51;2.70;99.90
23744;DHT22;12052;53.478;10.182;2023-11-22T11:31:20;2.80;99.90
23744;DHT22;12052;53.478;10.182;2023-11-22T11:36:24;2.80;99.90
23744;DHT22;12052;53.478;10.182;2023-11-22T11:38:55;2.80;99.90
23744;DHT22;12052;53.478;10.182;2023-11-22T11:41:26;2.80;99.90
23744;DHT22;12052;53.478;10.182;2023-11-22T11:43:53;2.90;99.90
23744;DHT22;12052;53.478;10.182;2023-11-22T11:46:20;2.90;99.90
23744;DHT22;12052;53.478;10.182;2023-11-22T11:48:49;2.90;99.90
23744;DHT22;12052;53.478;10.182;2023-11-22T11:51:16;3.00;99.90
23744;DHT22;12052;53.478;10.182;2023-11-22T11:53:44;3.00;99.90
23744;DHT22;12052;53.478;10.182;2023-11-22T11:56:10;2.90;99.90
23744;DHT22;12052;53.478;10.182;2023-11-22T11:58:37;3.00;99.90
23744;DHT22;12052;53.478;10.182;2023-11-22T12:01:04;3.00;99.90
23744;DHT22;12052;53.478;10.182;2023-11-22T12:03:30;3.10;99.90
23744;DHT22;12052;53.478;10.182;2023-11-22T12:05:56;3.20;99.90
23744;DHT22;12052;53.478;10.182;2023-11-22T12:08:21;3.10;99.90
23744;DHT22;12052;53.478;10.182;2023-11-22T12:10:47;3.20;99.90
23744;DHT22;12052;53.478;10.182;2023-11-22T12:13:20;3.20;99.90
23744;DHT22;12052;53.478;10.182;2023-11-22T12:15:47;3.20;99.90
23744;DHT22;12052;53.478;10.182;2023-11-22T12:18:14;3.20;99.90
23744;DHT22;12052;53.478;10.182;2023-11-22T12:20:40;3.20;99.90
23744;DHT22;12052;53.478;10.182;2023-11-22T12:23:06;3.30;99.90
23744;DHT22;12052;53.478;10.182;2023-11-22T12:25:32;3.30;99.90
23744;DHT22;12052;53.478;10.182;2023-11-22T12:27:58;3.30;99.90
23744;DHT22;12052;53.478;10.182;2023-11-22T12:30:32;3.20;99.90
23744;DHT22;12052;53.478;10.182;2023-11-22T12:33:06;3.30;99.90
23744;DHT22;12052;53.478;10.182;2023-11-22T12:35:36;3.30;99.90
23744;DHT22;12052;53.478;10.182;2023-11-22T12:38:04;3.30;99.90
23744;DHT22;12052;53.478;10.182;2023-11-22T12:40:31;3.30;99.90
23744;DHT22;12052;53.478;10.182;2023-11-22T12:42:57;3.30;99.90
23744;DHT22;12052;53.478;10.182;2023-11-22T12:45:23;3.30;99.90
23744;DHT22;12052;53.478;10.182;2023-11-22T12:47:54;3.30;99.90
23744;DHT22;12052;53.478;10.182;2023-11-22T12:50:37;3.30;99.90
23744;DHT22;12052;53.478;10.182;2023-11-22T12:53:22;3.30;99.90
23744;DHT22;12052;53.478;10.182;2023-11-22T12:55:52;3.30;99.90
23744;DHT22;12052;53.478;10.182;2023-11-22T12:58:19;3.40;99.90
23744;DHT22;12052;53.478;10.182;2023-11-22T13:00:46;3.40;99.90
23744;DHT22;12052;53.478;10.182;2023-11-22T13:03:12;3.40;99.90
23744;DHT22;12052;53.478;10.182;2023-11-22T13:05:39;3.40;99.90
23744;DHT22;12052;53.478;10.182;2023-11-22T13:08:08;3.40;99.90
23744;DHT22;12052;53.478;10.182;2023-11-22T13:10:36;3.40;99.90
23744;DHT22;12052;53.478;10.182;2023-11-22T13:13:02;3.50;99.90
23744;DHT22;12052;53.478;10.182;2023-11-22T13:15:28;3.50;99.90
23744;DHT22;12052;53.478;10.182;2023-11-22T13:17:53;3.40;99.90
23744;DHT22;12052;53.478;10.182;2023-11-22T13:20:24;3.50;99.90
23744;DHT22;12052;53.478;10.182;2023-11-22T13:22:51;3.50;99.90
23744;DHT22;12052;53.478;10.182;2023-11-22T13:25:17;3.50;99.90
23744;DHT22;12052;53.478;10.182;2023-11-22T13:27:47;3.40;99.90
23744;DHT22;12052;53.478;10.182;2023-11-22T13:30:14;3.40;99.90
23744;DHT22;12052;53.478;10.182;2023-11-22T13:32:40;3.40;99.90
23744;DHT22;12052;53.478;10.182;2023-11-22T13:35:08;3.40;99.90
23744;DHT22;12052;53.478;10.182;2023-11-22T13:37:43;3.40;99.90
23744;DHT22;12052;53.478;10.182;2023-11-22T13:40:11;3.40;99.90
23744;DHT22;12052;53.478;10.182;2023-11-22T13:42:47;3.30;99.90
23744;DHT22;12052;53.478;10.182;2023-11-22T13:45:14;3.40;99.90
23744;DHT22;12052;53.478;10.182;2023-11-22T13:47:44;3.30;99.90
23744;DHT22;12052;53.478;10.182;2023-11-22T13:50:10;3.30;99.90
23744;DHT22;12052;53.478;10.182;2023-11-22T13:52:38;3.30;99.90
23744;DHT22;12052;53.478;10.182;2023-11-22T13:55:04;3.30;99.90
23744;DHT22;12052;53.478;10.182;2023-11-22T13:57:33;3.20;99.90
23744;DHT22;12052;53.478;10.182;2023-11-22T13:59:59;3.20;99.90
23744;DHT22;12052;53.478;10.182;2023-11-22T14:02:24;3.20;99.90
23744;DHT22;12052;53.478;10.182;2023-11-22T14:04:50;3.10;99.90
23744;DHT22;12052;53.478;10.182;2023-11-22T14:07:16;3.10;99.90
23744;DHT22;12052;53.478;10.182;2023-11-22T14:09:42;3.10;99.90
23744;DHT22;12052;53.478;10.182;2023-11-22T14:12:10;3.10;99.90
23744;DHT22;12052;53.478;10.182;2023-11-22T14:14:36;3.00;99.90
23744;DHT22;12052;53.478;10.182;2023-11-22T14:17:02;3.00;99.90
23744;DHT22;12052;53.478;10.182;2023-11-22T14:19:27;3.00;99.90
23744;DHT22;12052;53.478;10.182;2023-11-22T14:21:53;3.00;99.90
23744;DHT22;12052;53.478;10.182;2023-11-22T14:24:18;2.90;99.90
23744;DHT22;12052;53.478;10.182;2023-11-22T14:26:44;2.90;99.90
23744;DHT22;12052;53.478;10.182;2023-11-22T14:29:14;2.90;99.90
23744;DHT22;12052;53.478;10.182;2023-11-22T14:31:39;2.90;99.90
23744;DHT22;12052;53.478;10.182;2023-11-22T14:34:05;2.90;99.90
23744;DHT22;12052;53.478;10.182;2023-11-22T14:36:31;2.80;99.90
23744;DHT22;12052;53.478;10.182;2023-11-22T14:38:56;2.80;99.90
23744;DHT22;12052;53.478;10.182;2023-11-22T14:41:22;2.80;99.90
23744;DHT22;12052;53.478;10.182;2023-11-22T14:43:48;2.80;99.90
23744;DHT22;12052;53.478;10.182;2023-11-22T14:46:14;2.80;99.90
23744;DHT22;12052;53.478;10.182;2023-11-22T14:48:39;2.70;99.90
23744;DHT22;12052;53.478;10.182;2023-11-22T14:51:05;2.70;99.90
23744;DHT22;12052;53.478;10.182;2023-11-22T14:53:31;2.70;99.90
23744;DHT22;12052;53.478;10.182;2023-11-22T14:55:56;2.70;99.90
23744;DHT22;12052;53.478;10.182;2023-11-22T14:58:22;2.70;99.90
23744;DHT22;12052;53.478;10.182;2023-11-22T15:00:48;2.70;99.90
23744;DHT22;12052;53.478;10.182;2023-11-22T15:03:14;2.60;99.90
23744;DHT22;12052;53.478;10.182;2023-11-22T15:05:40;2.60;99.90
23744;DHT22;12052;53.478;10.182;2023-11-22T15:08:06;2.60;99.90
23744;DHT22;12052;53.478;10.182;2023-11-22T15:10:33;2.60;99.90
23744;DHT22;12052;53.478;10.182;2023-11-22T15:12:59;2.60;99.90
23744;DHT22;12052;53.478;10.182;2023-11-22T15:15:25;2.60;99.90
23744;DHT22;12052;53.478;10.182;2023-11-22T15:17:50;2.60;99.90
23744;DHT22;12052;53.478;10.182;2023-11-22T15:20:16;2.50;99.90
23744;DHT22;12052;53.478;10.182;2023-11-22T15:22:42;2.60;99.90
23744;DHT22;12052;53.478;10.182;2023-11-22T15:25:08;2.50;99.90
23744;DHT22;12052;53.478;10.182;2023-11-22T15:27:35;2.60;99.90
23744;DHT22;12052;53.478;10.182;2023-11-22T15:30:01;2.60;99.90